Time;durP1;ratioP1;P1;durP2;ratioP2;P2;SDS_P1;SDS_P2;PMS_P1;PMS_P2;Temp;Humidity;BMP_temperature;BMP_pressure;BME280_temperature;BME280_humidity;BME280_pressure;Samples;Min_cycle;Max_cycle;Signal;HPM_P1;HPM_P2
2021/08/21 00:02:14;;;;;;;7.68;5.32;;;19.70;66.00;;;;;;5054587;28;20029;-63
2021/08/21 00:04:40;;;;;;;8.40;5.50;;;19.60;65.90;;;;;;5054680;28;20021;-63
2021/08/21 00:07:05;;;;;;;7.40;5.13;;;19.60;66.20;;;;;;5054162;28;20488;-63
2021/08/21 00:09:35;;;;;;;6.82;5.03;;;19.60;66.10;;;;;;5054410;28;20036;-64
2021/08/21 00:12:01;;;;;;;7.40;5.60;;;19.60;66.10;;;;;;5054187;28;20029;-63
2021/08/21 00:14:27;;;;;;;7.38;5.68;;;19.60;66.40;;;;;;5054094;28;20021;-64
2021/08/21 00:16:52;;;;;;;7.30;5.47;;;19.50;66.50;;;;;;5052896;28;20472;-64
2021/08/21 00:19:18;;;;;;;8.68;5.40;;;19.50;66.50;;;;;;5054174;28;20499;-63
2021/08/21 00:21:44;;;;;;;7.65;5.28;;;19.50;66.40;;;;;;5054005;28;20025;-64
2021/08/21 00:24:09;;;;;;;7.40;5.68;;;19.40;66.40;;;;;;5053788;28;20048;-64
2021/08/21 00:26:35;;;;;;;7.40;5.45;;;19.40;66.60;;;;;;5053882;28;20029;-64
2021/08/21 00:29:00;;;;;;;9.13;6.18;;;19.40;66.70;;;;;;5053960;28;20071;-64
2021/08/21 00:31:27;;;;;;;8.50;5.70;;;19.30;66.90;;;;;;5051848;28;20074;-64
2021/08/21 00:33:53;;;;;;;7.65;5.63;;;19.30;66.90;;;;;;5053727;28;20421;-64
2021/08/21 00:36:19;;;;;;;7.93;5.63;;;19.30;66.90;;;;;;5053768;28;20072;-64
2021/08/21 00:38:44;;;;;;;7.43;5.40;;;19.30;66.90;;;;;;5053766;28;20120;-66
2021/08/21 00:41:10;;;;;;;7.50;5.57;;;19.20;66.90;;;;;;5053525;28;20027;-64
2021/08/21 00:43:37;;;;;;;7.63;5.57;;;19.30;67.00;;;;;;5053627;28;20025;-62
2021/08/21 00:46:03;;;;;;;7.40;5.38;;;19.20;66.90;;;;;;5053613;28;20029;-63
2021/08/21 00:48:29;;;;;;;7.60;5.20;;;19.20;67.10;;;;;;5053573;28;20029;-63
2021/08/21 00:50:58;;;;;;;8.23;5.78;;;19.10;67.20;;;;;;5054273;28;20375;-63
2021/08/21 00:53:25;;;;;;;8.13;5.90;;;19.10;67.40;;;;;;5053330;28;20041;-64
2021/08/21 00:55:50;;;;;;;8.32;5.55;;;19.10;67.40;;;;;;5053252;28;20025;-64
2021/08/21 00:58:19;;;;;;;8.52;5.82;;;19.10;67.40;;;;;;5053493;28;20116;-64
2021/08/21 01:00:45;;;;;;;8.80;6.40;;;19.10;67.40;;;;;;5053248;28;20039;-64
2021/08/21 01:03:10;;;;;;;7.10;5.22;;;19.10;67.80;;;;;;5053316;28;20100;-63
2021/08/21 01:05:36;;;;;;;8.43;5.32;;;19.10;67.70;;;;;;5053550;28;20504;-64
2021/08/21 01:08:02;;;;;;;8.93;5.97;;;19.00;67.60;;;;;;5053913;28;20360;-64
2021/08/21 01:10:28;;;;;;;8.32;6.18;;;19.00;67.80;;;;;;5053023;28;20388;-64
2021/08/21 01:12:54;;;;;;;8.27;6.35;;;19.00;67.80;;;;;;5053043;28;20040;-64
2021/08/21 01:15:22;;;;;;;8.20;5.70;;;18.90;67.90;;;;;;5053017;28;20024;-64
2021/08/21 01:17:50;;;;;;;9.05;6.15;;;18.90;68.00;;;;;;5053107;28;20087;-64
2021/08/21 01:20:16;;;;;;;9.13;5.60;;;18.90;68.00;;;;;;5051830;28;20081;-64
2021/08/21 01:22:41;;;;;;;8.25;5.97;;;18.90;68.10;;;;;;5052796;28;20461;-63
2021/08/21 01:25:17;;;;;;;7.75;5.70;;;18.90;68.20;;;;;;5052789;28;20028;-63
2021/08/21 01:27:43;;;;;;;7.75;5.65;;;18.90;68.30;;;;;;5051622;28;20413;-63
2021/08/21 01:30:09;;;;;;;9.00;6.18;;;18.80;68.40;;;;;;5051461;28;20056;-63
2021/08/21 01:32:35;;;;;;;9.63;6.20;;;18.80;68.60;;;;;;5052634;28;20025;-63
2021/08/21 01:35:02;;;;;;;8.07;6.10;;;18.80;68.60;;;;;;5052761;28;20047;-64
2021/08/21 01:37:28;;;;;;;7.90;5.93;;;18.80;68.80;;;;;;5052700;28;20384;-63
2021/08/21 01:39:56;;;;;;;7.75;5.90;;;18.80;68.80;;;;;;5053036;28;20033;-63
2021/08/21 01:42:23;;;;;;;8.30;6.50;;;18.80;69.00;;;;;;5051837;28;20055;-64
2021/08/21 01:44:49;;;;;;;11.02;6.53;;;18.70;69.10;;;;;;5052747;28;20028;-65
2021/08/21 01:47:15;;;;;;;8.65;6.50;;;18.70;69.30;;;;;;5052959;28;20036;-64
2021/08/21 01:49:41;;;;;;;9.93;6.70;;;18.70;69.60;;;;;;5052813;28;20369;-63
2021/08/21 01:52:08;;;;;;;8.65;6.57;;;18.70;69.80;;;;;;5052195;28;20044;-64
2021/08/21 01:54:34;;;;;;;9.20;6.43;;;18.60;70.00;;;;;;5052173;28;20382;-64
2021/08/21 01:57:03;;;;;;;8.65;7.15;;;18.60;70.20;;;;;;5052245;28;20127;-64
2021/08/21 01:59:29;;;;;;;9.23;6.30;;;18.60;70.40;;;;;;5052394;28;20029;-63
2021/08/21 02:01:56;;;;;;;8.45;6.35;;;18.60;70.50;;;;;;5052323;28;20040;-64
2021/08/21 02:04:22;;;;;;;8.77;6.43;;;18.50;70.80;;;;;;5051968;28;20017;-63
2021/08/21 02:06:49;;;;;;;8.55;6.82;;;18.50;70.90;;;;;;5052017;28;20114;-63
2021/08/21 02:09:17;;;;;;;8.23;6.32;;;18.50;71.10;;;;;;5052107;28;20068;-63
2021/08/21 02:11:44;;;;;;;7.45;5.38;;;18.50;71.10;;;;;;5052346;28;20029;-63
2021/08/21 02:14:10;;;;;;;8.65;6.32;;;18.50;71.10;;;;;;5051837;28;20468;-64
2021/08/21 02:16:36;;;;;;;8.35;6.40;;;18.50;71.40;;;;;;5052206;28;20040;-64
2021/08/21 02:19:02;;;;;;;8.15;6.05;;;18.40;71.30;;;;;;5051895;28;20036;-64
2021/08/21 02:21:27;;;;;;;9.38;6.75;;;18.40;71.40;;;;;;5050625;28;20021;-64
2021/08/21 02:23:55;;;;;;;8.45;6.20;;;18.40;71.50;;;;;;5050273;28;20491;-63
2021/08/21 02:26:22;;;;;;;9.30;6.65;;;18.40;71.50;;;;;;5051670;28;20021;-65
2021/08/21 02:28:47;;;;;;;8.48;6.40;;;18.40;71.60;;;;;;5051754;28;20017;-64
2021/08/21 02:31:13;;;;;;;10.07;6.60;;;18.40;71.70;;;;;;5051634;28;20472;-63
2021/08/21 02:33:39;;;;;;;8.38;6.55;;;18.40;71.90;;;;;;5051400;28;20082;-63
2021/08/21 02:36:05;;;;;;;9.57;7.13;;;18.40;72.00;;;;;;5051369;28;20109;-64
2021/08/21 02:38:31;;;;;;;8.10;5.88;;;18.40;72.20;;;;;;5051622;28;20469;-64
2021/08/21 02:40:57;;;;;;;8.70;6.47;;;18.40;72.90;;;;;;5051573;28;20046;-64
2021/08/21 02:43:22;;;;;;;8.98;6.50;;;18.30;72.30;;;;;;5051606;28;20513;-63
2021/08/21 02:45:49;;;;;;;7.97;5.93;;;18.30;72.20;;;;;;5050158;28;20025;-64
2021/08/21 02:48:15;;;;;;;8.65;6.40;;;18.30;72.40;;;;;;5051264;28;20063;-63
2021/08/21 02:50:41;;;;;;;9.43;6.50;;;18.30;72.60;;;;;;5051328;28;20403;-64
2021/08/21 02:53:07;;;;;;;9.00;6.80;;;18.30;72.70;;;;;;5050817;28;20082;-64
2021/08/21 02:55:33;;;;;;;8.38;6.50;;;18.20;73.10;;;;;;5051296;28;20421;-64
2021/08/21 02:57:58;;;;;;;8.95;6.72;;;18.20;73.10;;;;;;5051337;28;20443;-63
2021/08/21 03:00:24;;;;;;;8.70;6.85;;;18.20;73.30;;;;;;5051716;28;20079;-63
2021/08/21 03:02:49;;;;;;;9.63;7.00;;;18.20;73.50;;;;;;5051143;28;20047;-64
2021/08/21 03:05:15;;;;;;;9.95;7.32;;;18.10;73.50;;;;;;5051395;28;20037;-63
2021/08/21 03:07:41;;;;;;;8.70;6.85;;;18.10;73.70;;;;;;5051214;28;20021;-65
2021/08/21 03:10:08;;;;;;;9.07;6.65;;;18.10;73.90;;;;;;5051110;28;20116;-63
2021/08/21 03:12:33;;;;;;;8.10;6.18;;;18.10;73.80;;;;;;5051120;28;20017;-64
2021/08/21 03:14:59;;;;;;;9.73;6.80;;;18.10;73.90;;;;;;5051069;28;20376;-63
2021/08/21 03:17:25;;;;;;;8.38;6.32;;;18.10;73.90;;;;;;5050982;28;20033;-64
2021/08/21 03:19:51;;;;;;;8.35;6.75;;;18.10;73.90;;;;;;5051195;28;20040;-64
2021/08/21 03:22:17;;;;;;;8.82;6.57;;;18.10;73.80;;;;;;5049926;28;20476;-63
2021/08/21 03:24:43;;;;;;;9.35;7.38;;;18.10;73.90;;;;;;5050967;28;20028;-64
2021/08/21 03:27:10;;;;;;;9.43;6.85;;;18.10;74.10;;;;;;5050913;28;20021;-63
2021/08/21 03:29:36;;;;;;;10.32;6.70;;;18.10;74.10;;;;;;5050840;28;20083;-64
2021/08/21 03:32:02;;;;;;;9.55;7.43;;;18.10;74.10;;;;;;5050678;28;20028;-64
2021/08/21 03:34:28;;;;;;;9.07;6.32;;;18.10;74.30;;;;;;5050830;28;20114;-63
2021/08/21 03:36:54;;;;;;;9.52;6.82;;;18.10;74.10;;;;;;5051017;28;20121;-63
2021/08/21 03:39:20;;;;;;;9.23;6.90;;;18.10;74.20;;;;;;5051021;28;20067;-63
2021/08/21 03:41:47;;;;;;;8.95;7.18;;;18.10;74.90;;;;;;5050854;28;20021;-62
2021/08/21 03:44:13;;;;;;;10.25;7.43;;;18.10;74.40;;;;;;5050801;28;20112;-64
2021/08/21 03:46:38;;;;;;;9.43;6.60;;;18.20;74.50;;;;;;5050802;28;20104;-64
2021/08/21 03:49:05;;;;;;;9.95;6.57;;;18.20;74.30;;;;;;5050886;28;20033;-63
2021/08/21 03:51:30;;;;;;;8.40;6.28;;;18.20;74.20;;;;;;5050984;28;20658;-63
2021/08/21 03:53:56;;;;;;;9.65;7.20;;;18.30;74.20;;;;;;5050654;28;20188;-64
2021/08/21 03:56:22;;;;;;;8.45;7.10;;;18.30;74.30;;;;;;5050602;28;20063;-64
2021/08/21 03:58:47;;;;;;;9.10;6.90;;;18.30;74.30;;;;;;5050834;28;20074;-64
2021/08/21 04:01:13;;;;;;;9.77;7.40;;;18.30;74.30;;;;;;5050545;28;20024;-64
2021/08/21 04:03:39;;;;;;;9.48;6.50;;;18.30;74.20;;;;;;5050663;28;20095;-64
2021/08/21 04:06:07;;;;;;;9.40;6.85;;;18.30;74.10;;;;;;5052706;28;20047;-63
2021/08/21 04:08:33;;;;;;;8.82;6.47;;;18.40;74.10;;;;;;5054147;28;20380;-64
2021/08/21 04:10:59;;;;;;;9.52;6.97;;;18.40;74.10;;;;;;5054206;28;20033;-64
2021/08/21 04:13:27;;;;;;;8.82;6.20;;;18.40;73.90;;;;;;5054164;28;20472;-63
2021/08/21 04:15:53;;;;;;;10.73;6.80;;;18.50;73.90;;;;;;5053846;28;20065;-63
2021/08/21 04:18:19;;;;;;;9.48;6.90;;;18.50;73.90;;;;;;5053865;28;20052;-64
2021/08/21 04:20:44;;;;;;;8.77;6.60;;;18.50;73.90;;;;;;5054153;28;20128;-63
2021/08/21 04:23:10;;;;;;;9.52;7.00;;;18.50;73.80;;;;;;5054036;28;20028;-64
2021/08/21 04:25:36;;;;;;;9.85;7.15;;;18.60;73.70;;;;;;5053953;28;20024;-62
2021/08/21 04:28:01;;;;;;;8.90;7.05;;;18.60;73.70;;;;;;5053747;28;20033;-63
2021/08/21 04:30:27;;;;;;;11.15;6.55;;;18.60;73.50;;;;;;5053944;28;20172;-64
2021/08/21 04:32:53;;;;;;;9.13;7.10;;;18.70;73.40;;;;;;5053629;28;20057;-64
2021/08/21 04:35:18;;;;;;;9.05;7.13;;;18.70;73.30;;;;;;5053682;28;20060;-63
2021/08/21 04:37:44;;;;;;;8.43;6.85;;;18.70;73.10;;;;;;5053711;28;20066;-64
2021/08/21 04:40:10;;;;;;;9.80;7.00;;;18.80;73.00;;;;;;5053685;28;20487;-64
2021/08/21 04:42:36;;;;;;;9.63;6.70;;;18.80;72.90;;;;;;5053543;28;20384;-64
2021/08/21 04:45:02;;;;;;;9.43;7.20;;;18.90;72.90;;;;;;5053595;28;20025;-64
2021/08/21 04:47:28;;;;;;;9.00;7.10;;;18.90;72.80;;;;;;5053498;28;20074;-63
2021/08/21 04:49:55;;;;;;;11.18;7.38;;;19.00;72.70;;;;;;5053321;28;20033;-64
2021/08/21 04:52:22;;;;;;;9.57;7.45;;;19.00;72.50;;;;;;5053427;28;20028;-64
2021/08/21 04:54:49;;;;;;;9.75;7.00;;;19.00;72.30;;;;;;5053290;28;20057;-65
2021/08/21 04:57:15;;;;;;;8.52;6.70;;;19.10;73.00;;;;;;5051959;28;20031;-63
2021/08/21 04:59:40;;;;;;;9.00;6.88;;;19.10;72.30;;;;;;5053197;28;20021;-64
2021/08/21 05:02:06;;;;;;;10.25;7.32;;;19.10;72.30;;;;;;5053276;28;20376;-64
2021/08/21 05:04:32;;;;;;;9.40;6.90;;;19.20;72.20;;;;;;5053039;28;20032;-63
2021/08/21 05:06:58;;;;;;;9.75;7.18;;;19.20;72.10;;;;;;5053468;28;20025;-64
2021/08/21 05:09:23;;;;;;;11.20;7.47;;;19.30;72.00;;;;;;5053129;28;20037;-64
2021/08/21 05:11:49;;;;;;;9.27;7.57;;;19.30;71.70;;;;;;5051886;28;20033;-65
2021/08/21 05:14:15;;;;;;;9.30;6.90;;;19.30;71.60;;;;;;5052844;28;20480;-64
2021/08/21 05:16:43;;;;;;;11.82;7.50;;;19.30;71.60;;;;;;5052806;28;20032;-65
2021/08/21 05:19:22;;;;;;;13.35;8.05;;;19.40;71.70;;;;;;5052986;28;20025;-64
2021/08/21 05:21:51;;;;;;;14.68;10.95;;;19.50;71.70;;;;;;5053251;28;20076;-64
2021/08/21 05:24:17;;;;;;;13.10;9.63;;;19.50;71.60;;;;;;5052770;28;20032;-64
2021/08/21 05:26:44;;;;;;;9.90;7.57;;;19.60;71.20;;;;;;5052950;28;20029;-65
2021/08/21 05:29:13;;;;;;;10.38;7.47;;;19.60;71.20;;;;;;5052967;28;20036;-64
2021/08/21 05:31:38;;;;;;;9.55;7.65;;;19.70;71.20;;;;;;5052665;28;20091;-64
2021/08/21 05:34:04;;;;;;;10.73;7.53;;;19.80;71.20;;;;;;5052650;28;20054;-64
2021/08/21 05:36:29;;;;;;;10.10;7.40;;;19.90;70.90;;;;;;5052868;28;20416;-64
2021/08/21 05:38:55;;;;;;;8.15;6.68;;;19.90;70.60;;;;;;5053159;28;20027;-64
2021/08/21 05:41:21;;;;;;;8.98;7.35;;;19.90;70.60;;;;;;5052489;28;20056;-64
2021/08/21 05:43:46;;;;;;;18.15;14.25;;;20.00;70.60;;;;;;5052419;28;20432;-64
2021/08/21 05:46:12;;;;;;;12.63;10.27;;;20.00;70.50;;;;;;5052213;28;20112;-64
2021/08/21 05:48:38;;;;;;;12.43;9.10;;;20.10;70.50;;;;;;5052329;28;20112;-65
2021/08/21 05:51:03;;;;;;;13.15;8.90;;;20.10;70.40;;;;;;5052360;28;20496;-64
2021/08/21 05:53:29;;;;;;;12.80;8.63;;;20.20;70.10;;;;;;5052012;28;20040;-64
2021/08/21 05:55:55;;;;;;;15.68;10.10;;;20.30;70.20;;;;;;5051903;28;20040;-64
2021/08/21 05:58:20;;;;;;;11.65;8.10;;;20.30;70.10;;;;;;5052295;28;20052;-64
2021/08/21 06:00:46;;;;;;;12.45;8.60;;;20.40;69.80;;;;;;5052283;28;20029;-64
2021/08/21 06:03:11;;;;;;;10.13;6.57;;;20.50;69.60;;;;;;5051992;28;20029;-64
2021/08/21 06:05:41;;;;;;;8.63;6.25;;;20.50;69.50;;;;;;5052154;28;20024;-64
2021/08/21 06:08:07;;;;;;;7.85;6.32;;;20.60;69.30;;;;;;5051860;28;20017;-64
2021/08/21 06:10:33;;;;;;;7.80;5.78;;;20.70;69.20;;;;;;5051962;28;20025;-64
2021/08/21 06:12:59;;;;;;;7.95;6.10;;;20.80;69.10;;;;;;5051681;28;20143;-65
2021/08/21 06:15:24;;;;;;;8.57;6.63;;;20.80;69.00;;;;;;5051986;28;20393;-64
2021/08/21 06:17:50;;;;;;;7.75;6.15;;;20.90;68.70;;;;;;5051898;28;20503;-64
2021/08/21 06:20:15;;;;;;;8.35;5.68;;;21.00;68.70;;;;;;5051902;28;20515;-64
2021/08/21 06:22:41;;;;;;;8.52;6.28;;;21.00;68.80;;;;;;5052209;28;20502;-64
2021/08/21 06:25:09;;;;;;;7.65;5.68;;;21.10;68.90;;;;;;5051576;28;20052;-65
2021/08/21 06:27:36;;;;;;;9.95;5.90;;;21.20;68.70;;;;;;5051534;28;20029;-65
2021/08/21 06:30:02;;;;;;;8.55;5.97;;;21.30;68.30;;;;;;5051611;28;20051;-64
2021/08/21 06:32:28;;;;;;;9.07;6.05;;;21.40;68.00;;;;;;5051477;28;20025;-63
2021/08/21 06:34:53;;;;;;;8.10;6.45;;;21.50;67.50;;;;;;5051622;28;20032;-64
2021/08/21 06:37:19;;;;;;;7.78;6.20;;;21.60;67.00;;;;;;5051385;28;20021;-63
2021/08/21 06:39:45;;;;;;;29.55;23.58;;;21.60;67.10;;;;;;5051388;28;20029;-65
2021/08/21 06:42:10;;;;;;;14.23;12.35;;;21.60;67.20;;;;;;5051358;28;20033;-65
2021/08/21 06:44:36;;;;;;;9.75;7.03;;;21.70;66.90;;;;;;5051400;28;20063;-66
2021/08/21 06:47:02;;;;;;;7.88;5.68;;;21.80;66.80;;;;;;5051554;28;20052;-65
2021/08/21 06:49:27;;;;;;;7.55;5.72;;;21.90;66.80;;;;;;5051499;28;20041;-66
2021/08/21 06:51:53;;;;;;;7.30;5.72;;;22.00;66.50;;;;;;5051254;28;20124;-64
2021/08/21 06:54:19;;;;;;;7.22;5.45;;;22.10;66.00;;;;;;5051084;28;20056;-65
2021/08/21 06:56:45;;;;;;;7.28;5.43;;;22.20;65.90;;;;;;5049905;28;20029;-64
2021/08/21 06:59:10;;;;;;;7.10;4.88;;;22.40;65.40;;;;;;5051304;28;20060;-64
2021/08/21 07:01:37;;;;;;;7.40;4.72;;;22.40;65.00;;;;;;5051327;28;20519;-64
2021/08/21 07:04:03;;;;;;;6.90;5.18;;;22.50;64.50;;;;;;5051091;28;20055;-64
2021/08/21 07:06:29;;;;;;;7.53;5.50;;;22.60;64.10;;;;;;5051316;28;20029;-64
2021/08/21 07:08:54;;;;;;;8.45;5.30;;;22.70;64.60;;;;;;5051585;28;20467;-65
2021/08/21 07:11:20;;;;;;;8.60;6.03;;;22.80;63.70;;;;;;5051378;28;20029;-65
2021/08/21 07:13:46;;;;;;;8.48;6.20;;;22.90;63.40;;;;;;5051069;28;20059;-64
2021/08/21 07:16:13;;;;;;;8.45;5.85;;;23.00;63.20;;;;;;5050989;28;20394;-64
2021/08/21 07:18:38;;;;;;;7.68;5.18;;;23.10;62.30;;;;;;5051100;28;20022;-65
2021/08/21 07:21:06;;;;;;;6.18;4.38;;;23.10;62.50;;;;;;5050973;28;20174;-65
2021/08/21 07:23:32;;;;;;;7.18;4.95;;;23.20;62.60;;;;;;5051110;28;20325;-64
2021/08/21 07:25:58;;;;;;;6.43;4.70;;;23.30;62.00;;;;;;5050885;28;20430;-65
2021/08/21 07:28:23;;;;;;;6.95;5.13;;;23.50;61.20;;;;;;5051120;28;20021;-66
2021/08/21 07:30:49;;;;;;;6.90;4.70;;;23.60;60.60;;;;;;5051033;28;20025;-65
2021/08/21 07:33:15;;;;;;;7.40;4.40;;;23.60;60.10;;;;;;5050735;28;20039;-65
2021/08/21 07:35:40;;;;;;;6.78;4.50;;;23.70;60.40;;;;;;5050933;28;20029;-64
2021/08/21 07:38:06;;;;;;;7.15;4.30;;;23.80;60.10;;;;;;5050829;28;20495;-63
2021/08/21 07:40:34;;;;;;;6.47;3.92;;;23.90;59.90;;;;;;5052637;28;20033;-64
2021/08/21 07:43:00;;;;;;;10.20;8.90;;;24.00;59.90;;;;;;5054731;28;20017;-65
2021/08/21 07:45:26;;;;;;;8.77;5.70;;;24.20;59.30;;;;;;5054791;28;20025;-66
2021/08/21 07:47:52;;;;;;;6.50;4.70;;;24.40;59.00;;;;;;5055088;28;20059;-65
2021/08/21 07:50:18;;;;;;;5.78;4.20;;;24.50;58.90;;;;;;5054823;28;20071;-66
2021/08/21 07:52:45;;;;;;;6.50;4.53;;;24.70;58.40;;;;;;5054451;28;20029;-65
2021/08/21 07:55:12;;;;;;;6.72;4.28;;;25.00;57.00;;;;;;5054514;28;20079;-64
2021/08/21 07:57:38;;;;;;;6.00;4.07;;;25.10;56.80;;;;;;5054581;28;20102;-65
2021/08/21 08:00:04;;;;;;;5.65;4.00;;;25.20;56.50;;;;;;5054359;28;20051;-65
2021/08/21 08:02:30;;;;;;;6.40;4.30;;;25.40;57.20;;;;;;5054374;28;20029;-66
2021/08/21 08:04:56;;;;;;;6.43;4.35;;;25.60;55.30;;;;;;5054668;28;20371;-65
2021/08/21 08:07:21;;;;;;;6.20;4.75;;;25.70;55.20;;;;;;5053133;28;20116;-66
2021/08/21 08:09:47;;;;;;;6.55;4.57;;;25.90;54.90;;;;;;5054414;28;20087;-66
2021/08/21 08:12:13;;;;;;;5.78;4.30;;;26.10;54.90;;;;;;5054170;28;20032;-65
2021/08/21 08:14:39;;;;;;;6.13;4.38;;;26.40;54.20;;;;;;5052801;28;20040;-65
2021/08/21 08:17:04;;;;;;;5.95;4.25;;;26.50;54.10;;;;;;5052878;28;20029;-65
2021/08/21 08:19:30;;;;;;;6.00;4.03;;;26.70;53.80;;;;;;5054096;28;20029;-65
2021/08/21 08:21:56;;;;;;;5.47;3.72;;;26.90;53.20;;;;;;5053996;28;20476;-65
2021/08/21 08:24:23;;;;;;;7.82;3.40;;;27.10;53.00;;;;;;5053831;28;20021;-65
2021/08/21 08:26:49;;;;;;;6.63;3.70;;;27.40;52.70;;;;;;5052643;28;20021;-64
2021/08/21 08:29:15;;;;;;;6.07;3.40;;;27.60;51.90;;;;;;5053942;28;20083;-65
2021/08/21 08:31:41;;;;;;;5.00;3.40;;;27.80;52.20;;;;;;5053775;28;20110;-65
2021/08/21 08:34:06;;;;;;;5.60;3.13;;;28.10;51.50;;;;;;5053583;28;20056;-65
2021/08/21 08:36:32;;;;;;;5.03;3.28;;;28.30;50.50;;;;;;5053723;28;20415;-65
2021/08/21 08:38:58;;;;;;;4.85;3.30;;;28.50;49.60;;;;;;5053648;28;20046;-66
2021/08/21 08:41:24;;;;;;;5.32;3.13;;;28.70;48.60;;;;;;5053646;28;20100;-65
2021/08/21 08:43:50;;;;;;;4.90;3.20;;;28.80;48.10;;;;;;5053681;28;20021;-65
2021/08/21 08:46:20;;;;;;;5.00;3.10;;;29.10;47.40;;;;;;5053554;28;20049;-65
2021/08/21 08:48:46;;;;;;;5.35;3.13;;;29.20;47.40;;;;;;5053840;28;20086;-65
2021/08/21 08:51:13;;;;;;;5.30;2.95;;;29.40;47.10;;;;;;5052898;28;20029;-65
2021/08/21 08:53:38;;;;;;;5.57;3.20;;;29.70;46.90;;;;;;5053341;28;20087;-66
2021/08/21 08:56:04;;;;;;;5.28;3.05;;;29.80;46.20;;;;;;5053246;28;20049;-66
2021/08/21 08:58:30;;;;;;;4.90;3.20;;;30.00;46.30;;;;;;5053435;28;20029;-66
2021/08/21 09:00:56;;;;;;;5.55;3.05;;;30.20;46.20;;;;;;5052238;28;20079;-65
2021/08/21 09:03:24;;;;;;;4.75;3.13;;;30.40;45.60;;;;;;5053007;28;20021;-66
2021/08/21 09:05:52;;;;;;;5.45;3.20;;;30.50;45.30;;;;;;5053115;28;20571;-65
2021/08/21 09:08:24;;;;;;;5.60;2.90;;;30.70;44.60;;;;;;5053112;28;20025;-64
2021/08/21 09:10:49;;;;;;;;;;;30.80;45.10;;;;;;5053727;28;20029;-66
2021/08/21 09:13:17;;;;;;;5.68;3.22;;;30.90;44.30;;;;;;5052855;28;19931;-66
2021/08/21 09:15:50;;;;;;;4.65;2.90;;;31.10;44.80;;;;;;5053088;28;20035;-65
2021/08/21 09:18:27;;;;;;;4.97;3.13;;;31.40;43.80;;;;;;5052776;28;20037;-65
2021/08/21 09:20:56;;;;;;;4.32;2.60;;;31.60;43.60;;;;;;5053112;28;20407;-65
2021/08/21 09:23:35;;;;;;;4.47;2.75;;;31.90;43.70;;;;;;5052840;28;20028;-66
2021/08/21 09:26:35;;;;;;;5.50;2.88;;;31.90;42.30;;;;;;5052775;28;20033;-65
2021/08/21 09:29:01;;;;;;;5.10;3.00;;;31.80;43.10;;;;;;5052922;28;20120;-65
2021/08/21 09:31:33;;;;;;;5.03;3.20;;;32.00;43.00;;;;;;5052579;28;20057;-65
2021/08/21 09:33:59;;;;;;;;;;;32.20;42.80;;;;;;5052986;28;20029;-66
2021/08/21 09:36:31;;;;;;;5.15;2.97;;;32.20;42.70;;;;;;5052455;28;19912;-65
2021/08/21 09:39:01;;;;;;;4.40;2.80;;;32.60;41.90;;;;;;5052662;28;20028;-66
2021/08/21 09:41:27;;;;;;;6.50;3.10;;;32.90;41.50;;;;;;5052543;28;20025;-66
2021/08/21 09:44:07;;;;;;;5.95;3.33;;;33.00;41.40;;;;;;5052350;28;20039;-66
2021/08/21 09:46:33;;;;;;;6.80;3.73;;;33.10;41.30;;;;;;5052479;28;20021;-66
2021/08/21 09:49:11;;;;;;;6.50;3.33;;;33.30;41.00;;;;;;5052386;28;20021;-65
2021/08/21 09:51:47;;;;;;;6.00;3.83;;;33.40;41.00;;;;;;5052330;28;20032;-65
2021/08/21 09:54:18;;;;;;;5.28;3.17;;;33.70;40.00;;;;;;5051947;28;20132;-66
2021/08/21 09:56:52;;;;;;;5.75;3.58;;;33.50;39.90;;;;;;5052229;28;20036;-66
2021/08/21 09:59:18;;;;;;;5.03;3.40;;;33.60;39.00;;;;;;5052058;28;20074;-65
2021/08/21 10:01:46;;;;;;;6.07;3.30;;;33.60;39.50;;;;;;5051913;28;20060;-66
2021/08/21 10:04:12;;;;;;;5.38;3.30;;;33.70;39.50;;;;;;5051062;28;20029;-66
2021/08/21 10:06:38;;;;;;;4.90;3.03;;;34.00;39.20;;;;;;5052129;28;20036;-65
2021/08/21 10:09:09;;;;;;;6.32;3.15;;;34.10;38.80;;;;;;5051862;28;20029;-65
2021/08/21 10:11:35;;;;;;;5.47;3.00;;;34.30;38.30;;;;;;5052174;28;20416;-65
2021/08/21 10:14:02;;;;;;;5.18;2.95;;;34.20;38.60;;;;;;5051715;28;20112;-65
2021/08/21 10:16:30;;;;;;;5.00;2.88;;;34.00;38.40;;;;;;5051854;28;20120;-66
2021/08/21 10:18:57;;;;;;;4.65;2.67;;;34.00;39.20;;;;;;5051835;28;20044;-66
2021/08/21 10:21:23;;;;;;;5.03;3.15;;;34.30;39.10;;;;;;5051875;28;20045;-64
2021/08/21 10:23:50;;;;;;;4.35;2.65;;;34.50;38.70;;;;;;5051586;28;20053;-65
2021/08/21 10:26:40;;;;;;;6.50;3.80;;;34.60;38.60;;;;;;5051518;28;20025;-65
2021/08/21 10:29:12;;;;;;;7.60;5.60;;;34.40;38.30;;;;;;5050545;28;20033;-65
2021/08/21 10:31:47;;;;;;;5.88;4.13;;;34.10;38.80;;;;;;5051681;28;20071;-66
2021/08/21 10:34:14;;;;;;;8.90;5.70;;;33.60;38.30;;;;;;5051459;28;20114;-66
2021/08/21 10:36:43;;;;;;;5.82;3.67;;;33.30;39.00;;;;;;5051575;28;20028;-65
2021/08/21 10:39:23;;;;;;;4.68;3.25;;;33.20;39.10;;;;;;5051417;28;20086;-66
2021/08/21 10:41:52;;;;;;;6.32;3.50;;;33.20;39.10;;;;;;5051558;28;20361;-66
2021/08/21 10:44:47;;;;;;;7.00;4.05;;;33.30;39.00;;;;;;5051455;28;20025;-66
2021/08/21 10:47:39;;;;;;;4.88;3.25;;;33.50;38.80;;;;;;5049412;28;20124;-66
2021/08/21 10:50:14;;;;;;;5.13;3.40;;;33.50;38.70;;;;;;5050578;28;20044;-66
2021/08/21 10:52:53;;;;;;;5.00;2.92;;;33.60;38.30;;;;;;5051273;28;20039;-65
2021/08/21 10:55:25;;;;;;;4.40;2.72;;;33.60;38.00;;;;;;5051224;28;20068;-65
2021/08/21 10:57:59;;;;;;;4.40;2.80;;;33.90;38.30;;;;;;5051214;28;20082;-67
2021/08/21 11:00:47;;;;;;;5.32;2.80;;;34.20;37.90;;;;;;5051340;28;20025;-65
2021/08/21 11:03:24;;;;;;;4.85;2.45;;;34.40;37.60;;;;;;5051070;28;20360;-65
2021/08/21 11:06:00;;;;;;;4.18;2.20;;;34.60;37.90;;;;;;5051388;28;20025;-65
2021/08/21 11:08:31;;;;;;;4.80;2.55;;;34.90;37.20;;;;;;5051195;28;20071;-65
2021/08/21 11:11:17;;;;;;;4.70;2.50;;;35.20;35.80;;;;;;5051192;28;20025;-66
2021/08/21 11:14:05;;;;;;;5.63;2.33;;;35.20;36.00;;;;;;5051502;28;20029;-65
2021/08/21 11:17:01;;;;;;;5.18;2.70;;;35.40;36.30;;;;;;5053921;28;20025;-65
2021/08/21 11:19:33;;;;;;;5.10;2.42;;;35.50;35.60;;;;;;5054982;28;20087;-65
2021/08/21 11:22:20;;;;;;;5.00;2.45;;;35.60;35.90;;;;;;5055205;28;20040;-66
2021/08/21 11:24:51;;;;;;;4.55;2.58;;;35.80;35.30;;;;;;5055191;28;20050;-66
2021/08/21 11:27:27;;;;;;;5.13;2.70;;;35.80;35.70;;;;;;5054983;28;20025;-65
2021/08/21 11:30:11;;;;;;;5.03;2.70;;;35.50;35.50;;;;;;5055070;28;20036;-66
2021/08/21 11:32:49;;;;;;;5.18;2.45;;;35.40;35.80;;;;;;5054876;28;20349;-66
2021/08/21 11:35:22;;;;;;;5.00;2.67;;;35.50;36.10;;;;;;5055318;28;20598;-66
2021/08/21 11:38:03;;;;;;;5.22;2.67;;;36.00;36.10;;;;;;5054717;28;20036;-66
2021/08/21 11:40:37;;;;;;;5.87;2.60;;;36.20;35.70;;;;;;5053814;28;20456;-66
2021/08/21 11:43:05;;;;;;;4.35;2.50;;;36.30;35.50;;;;;;5054707;28;20303;-65
2021/08/21 11:45:32;;;;;;;4.40;2.40;;;36.50;35.20;;;;;;5054893;28;20021;-65
2021/08/21 11:47:58;;;;;;;5.00;2.55;;;36.60;35.40;;;;;;5054584;28;20029;-65
2021/08/21 11:50:30;;;;;;;6.70;2.35;;;36.80;35.30;;;;;;5054956;28;20017;-66
2021/08/21 11:52:58;;;;;;;4.90;2.25;;;37.10;35.00;;;;;;5053300;28;20515;-65
2021/08/21 11:55:24;;;;;;;4.47;2.30;;;37.40;35.00;;;;;;5054437;28;20045;-65
2021/08/21 11:57:50;;;;;;;5.00;2.38;;;37.70;34.40;;;;;;5053292;28;20074;-66
2021/08/21 12:00:28;;;;;;;4.40;2.63;;;37.80;34.60;;;;;;5054353;28;20438;-65
2021/08/21 12:03:03;;;;;;;4.57;2.15;;;38.10;32.90;;;;;;5054739;28;20339;-65
2021/08/21 12:05:30;;;;;;;4.25;2.70;;;37.80;33.50;;;;;;5054349;28;20028;-66
2021/08/21 12:07:58;;;;;;;4.93;2.63;;;38.00;33.00;;;;;;5054254;28;20104;-65
2021/08/21 12:10:24;;;;;;;4.22;2.30;;;37.90;33.10;;;;;;5054368;28;20021;-66
2021/08/21 12:12:55;;;;;;;4.30;2.40;;;37.70;33.10;;;;;;5054120;28;20384;-65
2021/08/21 12:15:31;;;;;;;4.18;2.28;;;37.80;32.90;;;;;;5054531;28;20520;-65
2021/08/21 12:17:57;;;;;;;5.03;2.67;;;37.80;33.10;;;;;;5054500;28;20029;-66
2021/08/21 12:20:23;;;;;;;4.82;2.70;;;37.80;32.80;;;;;;5054306;28;20028;-65
2021/08/21 12:22:49;;;;;;;4.90;3.33;;;37.70;32.80;;;;;;5053963;28;20021;-65
2021/08/21 12:25:15;;;;;;;4.63;2.95;;;37.40;32.90;;;;;;5052061;28;20051;-65
2021/08/21 12:27:41;;;;;;;7.80;3.58;;;37.00;32.90;;;;;;5053160;28;20035;-65
2021/08/21 12:30:15;;;;;;;7.70;5.60;;;36.10;33.20;;;;;;5053666;28;20428;-65
2021/08/21 12:32:41;;;;;;;9.43;6.13;;;35.40;33.90;;;;;;5053558;28;20028;-65
2021/08/21 12:35:09;;;;;;;5.65;3.75;;;35.30;34.70;;;;;;5053785;28;20499;-66
2021/08/21 12:37:35;;;;;;;34.67;16.13;;;35.80;34.40;;;;;;5053582;28;20028;-65
2021/08/21 12:40:16;;;;;;;30.60;16.70;;;36.40;33.80;;;;;;5053879;28;20035;-65
2021/08/21 12:42:45;;;;;;;21.10;12.13;;;36.90;33.50;;;;;;5053657;28;20534;-66
2021/08/21 12:45:18;;;;;;;9.18;5.82;;;37.20;33.30;;;;;;5053831;28;20024;-66
2021/08/21 12:47:43;;;;;;;9.55;6.20;;;37.50;32.60;;;;;;5053690;28;20028;-66
2021/08/21 12:50:12;;;;;;;7.25;4.47;;;37.60;32.60;;;;;;5053965;28;20695;-65